Time;durP1;ratioP1;P1;durP2;ratioP2;P2;SDS_P1;SDS_P2;PMS_P1;PMS_P2;Temp;Humidity;BMP_temperature;BMP_pressure;BME280_temperature;BME280_humidity;BME280_pressure;Samples;Min_cycle;Max_cycle;Signal;HPM_P1;HPM_P2
2023/06/15 07:47:44;;;;;;;3.67;3.38;;;;;;;;;;6277028;22;20342;-78
2023/06/15 07:50:09;;;;;;;3.75;3.45;;;;;;;;;;6276937;22;20003;-78
2023/06/15 08:31:12;;;;;;;4.80;3.40;;;;;;;;;;6306968;22;20019;-77
2023/06/15 11:33:42;;;;;;;4.15;3.53;;;;;;;;;;6290671;22;20392;-82
2023/06/15 11:36:09;;;;;;;4.68;4.28;;;;;;;;;;6308130;22;20007;-82
2023/06/15 11:38:35;;;;;;;3.83;3.53;;;;;;;;;;6308088;22;19999;-86
2023/06/15 11:41:04;;;;;;;7.25;3.95;;;;;;;;;;6308809;22;20002;-83
2023/06/15 11:43:46;;;;;;;4.80;4.40;;;;;;;;;;6308281;22;19999;-82
2023/06/15 17:40:13;;;;;;;6.10;5.50;;;;;;;;;;6281651;22;20011;-88
2023/06/15 17:42:39;;;;;;;7.22;5.32;;;;;;;;;;6309246;22;20039;-88
2023/06/15 17:45:07;;;;;;;5.63;5.13;;;;;;;;;;6317015;22;20009;-89
2023/06/15 17:47:32;;;;;;;5.55;5.05;;;;;;;;;;6309181;22;19996;-84
2023/06/15 17:49:58;;;;;;;7.20;5.93;;;;;;;;;;6309028;22;20026;-85
2023/06/15 17:52:23;;;;;;;6.82;6.00;;;;;;;;;;6309150;22;20038;-85
2023/06/15 17:54:48;;;;;;;6.88;6.18;;;;;;;;;;6308918;22;19999;-83
2023/06/15 17:57:14;;;;;;;6.55;5.93;;;;;;;;;;6308854;22;20049;-82
2023/06/15 17:59:40;;;;;;;6.70;6.00;;;;;;;;;;6310372;22;20012;-83
2023/06/15 18:02:06;;;;;;;5.72;5.22;;;;;;;;;;6309084;22;20007;-83
2023/06/15 18:04:31;;;;;;;7.88;7.07;;;;;;;;;;6307354;22;20007;-83
2023/06/15 18:06:57;;;;;;;6.60;6.00;;;;;;;;;;6308438;22;20035;-83
2023/06/15 18:09:22;;;;;;;6.70;6.10;;;;;;;;;;6309153;22;20009;-83
2023/06/15 18:11:47;;;;;;;8.90;7.85;;;;;;;;;;6308966;22;19999;-82
2023/06/15 18:14:13;;;;;;;7.85;7.13;;;;;;;;;;6308819;22;20003;-82
2023/06/15 18:16:38;;;;;;;6.82;5.93;;;;;;;;;;6308887;22;20042;-85
2023/06/15 18:19:04;;;;;;;6.20;5.60;;;;;;;;;;6309052;22;20087;-85
2023/06/15 18:21:29;;;;;;;6.55;5.95;;;;;;;;;;6307261;22;20008;-83
2023/06/15 18:23:55;;;;;;;8.55;7.65;;;;;;;;;;6308649;22;20057;-82
2023/06/15 18:26:20;;;;;;;5.93;5.35;;;;;;;;;;6307135;22;20022;-82
2023/06/15 18:28:46;;;;;;;6.00;4.82;;;;;;;;;;6308984;22;20433;-84
2023/06/15 18:31:12;;;;;;;6.03;5.43;;;;;;;;;;6308751;22;20002;-84
2023/06/15 18:33:37;;;;;;;5.30;4.80;;;;;;;;;;6308778;22;20000;-82
2023/06/15 18:36:03;;;;;;;4.93;4.53;;;;;;;;;;6306907;22;20003;-83
2023/06/15 18:38:31;;;;;;;6.30;5.70;;;;;;;;;;6308278;22;20003;-82
2023/06/15 18:40:58;;;;;;;6.05;5.55;;;;;;;;;;6308506;22;20419;-83
2023/06/15 18:43:24;;;;;;;9.18;5.97;;;;;;;;;;6308566;22;20053;-83
2023/06/15 18:45:56;;;;;;;7.53;6.82;;;;;;;;;;6308486;22;20002;-83
2023/06/15 18:48:22;;;;;;;7.50;6.80;;;;;;;;;;6308516;22;20010;-83
2023/06/15 18:50:48;;;;;;;6.65;6.00;;;;;;;;;;6308600;22;19999;-82
2023/06/15 18:53:14;;;;;;;6.43;5.70;;;;;;;;;;6308248;22;20468;-82
2023/06/15 18:55:39;;;;;;;6.90;5.43;;;;;;;;;;6308379;22;20381;-82
2023/06/15 18:58:05;;;;;;;5.50;5.03;;;;;;;;;;6308464;22;20422;-84
2023/06/15 19:00:31;;;;;;;6.15;5.40;;;;;;;;;;6307086;22;20023;-84
2023/06/15 19:02:57;;;;;;;6.55;5.85;;;;;;;;;;6306904;22;20129;-83
2023/06/15 19:05:23;;;;;;;6.00;5.40;;;;;;;;;;6308219;22;20003;-84
2023/06/15 19:07:48;;;;;;;5.47;4.88;;;;;;;;;;6307025;22;20007;-82
2023/06/15 19:10:15;;;;;;;5.55;4.70;;;;;;;;;;6307343;22;20014;-83
2023/06/15 19:12:45;;;;;;;5.20;4.70;;;;;;;;;;6307177;22;20003;-83
2023/06/15 19:15:11;;;;;;;7.05;5.22;;;;;;;;;;6307248;22;20023;-83
2023/06/15 19:17:37;;;;;;;5.32;4.80;;;;;;;;;;6307149;22;20030;-82
2023/06/15 19:20:03;;;;;;;5.43;4.43;;;;;;;;;;6308482;22;20000;-82
2023/06/15 19:22:29;;;;;;;5.70;4.70;;;;;;;;;;6307607;22;20009;-82
2023/06/15 19:24:54;;;;;;;5.13;4.65;;;;;;;;;;6280056;22;20035;-81
2023/06/15 19:27:23;;;;;;;5.40;4.90;;;;;;;;;;6307896;22;20026;-82
2023/06/15 19:29:48;;;;;;;5.35;4.80;;;;;;;;;;6308441;22;20007;-85
2023/06/15 19:32:14;;;;;;;5.63;5.13;;;;;;;;;;6308732;22;20414;-90
2023/06/15 19:34:41;;;;;;;5.70;5.20;;;;;;;;;;6308714;22;20101;-82
2023/06/15 19:37:06;;;;;;;5.30;4.90;;;;;;;;;;6307207;22;20011;-91
2023/06/15 19:39:34;;;;;;;5.47;4.80;;;;;;;;;;6307605;22;20011;-82
2023/06/15 19:42:00;;;;;;;5.35;4.85;;;;;;;;;;6280902;22;20037;-82
2023/06/15 19:44:25;;;;;;;5.53;4.82;;;;;;;;;;6308493;22;20003;-94
2023/06/15 19:46:58;;;;;;;4.90;4.50;;;;;;;;;;6309352;22;20004;-81
2023/06/15 19:49:28;;;;;;;5.45;4.93;;;;;;;;;;6309101;22;20003;-92
2023/06/15 19:51:56;;;;;;;5.78;4.85;;;;;;;;;;6309357;22;20322;-87
2023/06/15 19:54:22;;;;;;;7.40;6.57;;;;;;;;;;6308442;22;20003;-86
2023/06/15 19:56:47;;;;;;;5.82;5.22;;;;;;;;;;6308087;22;20460;-82
2023/06/15 19:59:13;;;;;;;5.93;5.40;;;;;;;;;;6308105;22;20000;-86
2023/06/15 20:01:39;;;;;;;5.70;5.10;;;;;;;;;;6308370;22;20019;-84
2023/06/15 20:04:05;;;;;;;5.63;5.10;;;;;;;;;;6308844;22;19999;-88
2023/06/15 20:06:30;;;;;;;5.85;5.25;;;;;;;;;;6308602;22;19995;-86
2023/06/15 20:09:02;;;;;;;6.03;5.43;;;;;;;;;;6308488;22;20426;-87
2023/06/15 20:11:27;;;;;;;5.55;5.05;;;;;;;;;;6308417;22;20006;-81
2023/06/15 20:13:52;;;;;;;6.20;5.60;;;;;;;;;;6310344;22;19995;-83
2023/06/15 20:16:18;;;;;;;8.55;5.93;;;;;;;;;;6310617;22;20418;-91
2023/06/15 20:18:51;;;;;;;8.30;7.22;;;;;;;;;;6311466;22;20025;-89
2023/06/15 20:21:20;;;;;;;6.13;5.53;;;;;;;;;;6309770;22;20074;-85
2023/06/15 20:23:45;;;;;;;6.40;5.40;;;;;;;;;;6310825;22;20010;-84
2023/06/15 20:26:12;;;;;;;7.57;5.97;;;;;;;;;;6308989;22;20004;-88
2023/06/15 20:28:37;;;;;;;7.88;7.07;;;;;;;;;;6308287;22;20000;-87
2023/06/15 20:31:05;;;;;;;5.28;4.78;;;;;;;;;;6310390;22;20292;-84
2023/06/15 20:33:36;;;;;;;5.35;4.65;;;;;;;;;;6310996;22;20004;-85
2023/06/15 20:36:03;;;;;;;5.43;4.75;;;;;;;;;;6312097;22;20000;-86
2023/06/15 20:38:33;;;;;;;7.50;6.70;;;;;;;;;;6310895;22;20334;-86
2023/06/15 20:41:00;;;;;;;12.60;9.55;;;;;;;;;;6310174;22;20011;-85
2023/06/15 20:43:27;;;;;;;9.63;7.75;;;;;;;;;;6310307;22;20007;-85
2023/06/15 20:45:53;;;;;;;6.30;5.70;;;;;;;;;;6310224;22;19999;-89
2023/06/15 20:48:19;;;;;;;9.15;5.05;;;;;;;;;;6310045;22;20004;-90
2023/06/15 20:50:47;;;;;;;6.18;5.15;;;;;;;;;;6310319;22;20005;-86
2023/06/15 20:53:12;;;;;;;6.03;5.22;;;;;;;;;;6310749;22;20137;-85
2023/06/15 20:55:38;;;;;;;6.55;5.95;;;;;;;;;;6308627;22;20053;-88
2023/06/15 20:58:04;;;;;;;7.18;6.45;;;;;;;;;;6309894;22;20007;-87
2023/06/15 21:00:31;;;;;;;6.20;5.60;;;;;;;;;;6310359;22;20003;-89
2023/06/15 21:02:57;;;;;;;7.65;6.30;;;;;;;;;;6310536;22;20053;-91
2023/06/15 21:05:24;;;;;;;7.05;5.70;;;;;;;;;;6310409;22;20161;-87
2023/06/15 21:07:50;;;;;;;5.45;4.95;;;;;;;;;;6310025;22;20003;-84
2023/06/15 21:10:17;;;;;;;7.97;7.13;;;;;;;;;;6309909;22;20004;-88
2023/06/15 21:12:42;;;;;;;5.85;5.32;;;;;;;;;;6310435;22;20423;-87
2023/06/15 21:15:08;;;;;;;5.88;5.38;;;;;;;;;;6310247;22;20039;-87
2023/06/15 21:17:36;;;;;;;7.80;6.93;;;;;;;;;;6309794;22;20031;-85
2023/06/15 21:20:03;;;;;;;6.03;5.43;;;;;;;;;;6310315;22;20003;-85
2023/06/15 21:22:29;;;;;;;7.60;6.85;;;;;;;;;;6310196;22;19999;-86
2023/06/15 21:24:54;;;;;;;9.57;7.40;;;;;;;;;;6309523;22;20414;-86
2023/06/15 21:27:20;;;;;;;6.72;6.13;;;;;;;;;;6309671;22;20003;-85
2023/06/15 21:29:45;;;;;;;7.28;6.28;;;;;;;;;;6309950;22;20014;-84
2023/06/15 21:32:11;;;;;;;7.35;6.63;;;;;;;;;;6309655;22;20018;-84
2023/06/15 21:34:36;;;;;;;7.72;6.20;;;;;;;;;;6309374;22;19999;-84
2023/06/15 21:37:02;;;;;;;9.15;7.95;;;;;;;;;;6309441;22;20048;-84
2023/06/15 21:39:27;;;;;;;7.57;6.88;;;;;;;;;;6309230;22;20007;-85
2023/06/15 21:41:53;;;;;;;8.50;6.75;;;;;;;;;;6309539;22;20082;-84
2023/06/15 21:44:18;;;;;;;6.25;5.65;;;;;;;;;;6309355;22;20022;-85
2023/06/15 21:46:44;;;;;;;6.40;5.80;;;;;;;;;;6309623;22;20334;-85
2023/06/15 21:49:09;;;;;;;7.28;6.57;;;;;;;;;;6309717;22;20015;-84
2023/06/15 21:51:35;;;;;;;7.65;6.20;;;;;;;;;;6309464;22;20467;-86
2023/06/15 21:54:00;;;;;;;7.82;6.82;;;;;;;;;;6309150;22;20034;-86
2023/06/15 21:56:26;;;;;;;9.50;7.68;;;;;;;;;;6309383;22;20418;-85
2023/06/15 21:58:51;;;;;;;11.10;7.70;;;;;;;;;;6309543;22;19999;-82
2023/06/15 22:01:17;;;;;;;10.48;7.43;;;;;;;;;;6309579;22;20031;-86
2023/06/15 22:03:43;;;;;;;10.52;7.57;;;;;;;;;;6309413;22;20052;-86
2023/06/15 22:06:08;;;;;;;8.68;7.10;;;;;;;;;;6309288;22;20338;-86
